sensor_id;sensor_type;location;lat;lon;timestamp;P1;durP1;ratioP1;P2;durP2;ratioP2
17564;SDS011;62994;52.126;5.596;2022-09-09T00:01:44;2.03;;;1.48;;
17564;SDS011;62994;52.126;5.596;2022-09-09T00:04:17;1.13;;;1.02;;
17564;SDS011;62994;52.126;5.596;2022-09-09T00:06:54;1.00;;;0.90;;
17564;SDS011;62994;52.126;5.596;2022-09-09T00:09:27;1.30;;;1.27;;
17564;SDS011;62994;52.126;5.596;2022-09-09T00:11:58;1.00;;;0.90;;
17564;SDS011;62994;52.126;5.596;2022-09-09T00:14:34;1.38;;;1.27;;
17564;SDS011;62994;52.126;5.596;2022-09-09T00:17:06;1.33;;;1.20;;
17564;SDS011;62994;52.126;5.596;2022-09-09T00:19:39;1.20;;;1.10;;
17564;SDS011;62994;52.126;5.596;2022-09-09T00:22:16;1.23;;;1.10;;
17564;SDS011;62994;52.126;5.596;2022-09-09T00:24:45;1.55;;;1.45;;
17564;SDS011;62994;52.126;5.596;2022-09-09T00:27:18;1.50;;;1.40;;
17564;SDS011;62994;52.126;5.596;2022-09-09T00:29:51;2.88;;;1.40;;
17564;SDS011;62994;52.126;5.596;2022-09-09T00:32:21;1.60;;;1.50;;
17564;SDS011;62994;52.126;5.596;2022-09-09T00:34:51;2.05;;;1.95;;
17564;SDS011;62994;52.126;5.596;2022-09-09T00:37:21;3.05;;;1.83;;
17564;SDS011;62994;52.126;5.596;2022-09-09T00:39:50;2.20;;;2.10;;
17564;SDS011;62994;52.126;5.596;2022-09-09T00:42:24;2.45;;;2.28;;
17564;SDS011;62994;52.126;5.596;2022-09-09T00:44:58;2.97;;;2.70;;
17564;SDS011;62994;52.126;5.596;2022-09-09T00:47:39;2.47;;;2.28;;
17564;SDS011;62994;52.126;5.596;2022-09-09T00:50:13;2.60;;;2.45;;
17564;SDS011;62994;52.126;5.596;2022-09-09T00:52:56;3.00;;;2.80;;
17564;SDS011;62994;52.126;5.596;2022-09-09T00:55:33;2.95;;;2.70;;
17564;SDS011;62994;52.126;5.596;2022-09-09T00:58:09;3.38;;;2.95;;
17564;SDS011;62994;52.126;5.596;2022-09-09T01:00:39;3.40;;;2.97;;
17564;SDS011;62994;52.126;5.596;2022-09-09T01:03:20;3.30;;;3.00;;
17564;SDS011;62994;52.126;5.596;2022-09-09T01:05:54;3.20;;;3.00;;
17564;SDS011;62994;52.126;5.596;2022-09-09T01:08:36;6.00;;;3.22;;
17564;SDS011;62994;52.126;5.596;2022-09-09T01:11:20;4.47;;;3.63;;
17564;SDS011;62994;52.126;5.596;2022-09-09T01:13:52;3.22;;;2.90;;
17564;SDS011;62994;52.126;5.596;2022-09-09T01:16:24;3.30;;;3.00;;
17564;SDS011;62994;52.126;5.596;2022-09-09T01:18:53;4.75;;;3.25;;
17564;SDS011;62994;52.126;5.596;2022-09-09T01:21:23;3.30;;;3.10;;
17564;SDS011;62994;52.126;5.596;2022-09-09T01:24:04;3.20;;;3.00;;
17564;SDS011;62994;52.126;5.596;2022-09-09T01:26:43;4.80;;;3.38;;
17564;SDS011;62994;52.126;5.596;2022-09-09T01:29:12;3.67;;;3.05;;
17564;SDS011;62994;52.126;5.596;2022-09-09T01:31:42;3.00;;;2.75;;
17564;SDS011;62994;52.126;5.596;2022-09-09T01:34:20;2.95;;;2.85;;
17564;SDS011;62994;52.126;5.596;2022-09-09T01:36:49;2.85;;;2.75;;
17564;SDS011;62994;52.126;5.596;2022-09-09T01:39:23;3.25;;;3.03;;
17564;SDS011;62994;52.126;5.596;2022-09-09T01:41:52;3.03;;;2.90;;
17564;SDS011;62994;52.126;5.596;2022-09-09T01:44:21;3.40;;;3.20;;
17564;SDS011;62994;52.126;5.596;2022-09-09T01:46:48;3.40;;;3.20;;
17564;SDS011;62994;52.126;5.596;2022-09-09T01:49:16;3.22;;;3.03;;
17564;SDS011;62994;52.126;5.596;2022-09-09T01:51:43;3.28;;;3.08;;
17564;SDS011;62994;52.126;5.596;2022-09-09T01:54:12;3.10;;;2.88;;
17564;SDS011;62994;52.126;5.596;2022-09-09T01:56:40;4.22;;;3.03;;
17564;SDS011;62994;52.126;5.596;2022-09-09T02:02:20;7.43;;;4.50;;
17564;SDS011;62994;52.126;5.596;2022-09-09T02:04:53;3.20;;;3.00;;
17564;SDS011;62994;52.126;5.596;2022-09-09T02:07:30;3.35;;;3.15;;
17564;SDS011;62994;52.126;5.596;2022-09-09T02:10:05;3.33;;;3.03;;
17564;SDS011;62994;52.126;5.596;2022-09-09T02:12:43;3.45;;;3.25;;
17564;SDS011;62994;52.126;5.596;2022-09-09T02:15:17;6.78;;;3.50;;
17564;SDS011;62994;52.126;5.596;2022-09-09T02:17:46;3.47;;;3.28;;
17564;SDS011;62994;52.126;5.596;2022-09-09T02:20:17;3.90;;;3.67;;
17564;SDS011;62994;52.126;5.596;2022-09-09T02:22:45;3.90;;;3.60;;
17564;SDS011;62994;52.126;5.596;2022-09-09T02:25:15;5.60;;;4.10;;
17564;SDS011;62994;52.126;5.596;2022-09-09T02:27:45;3.90;;;3.65;;
17564;SDS011;62994;52.126;5.596;2022-09-09T02:30:16;4.80;;;4.30;;
17564;SDS011;62994;52.126;5.596;2022-09-09T02:32:44;4.30;;;4.10;;
17564;SDS011;62994;52.126;5.596;2022-09-09T02:35:15;3.70;;;3.50;;
17564;SDS011;62994;52.126;5.596;2022-09-09T02:37:46;4.15;;;3.80;;
17564;SDS011;62994;52.126;5.596;2022-09-09T02:40:13;3.90;;;3.70;;
17564;SDS011;62994;52.126;5.596;2022-09-09T02:42:42;4.95;;;3.70;;
17564;SDS011;62994;52.126;5.596;2022-09-09T02:45:10;3.70;;;3.50;;
17564;SDS011;62994;52.126;5.596;2022-09-09T02:47:43;3.90;;;3.70;;
17564;SDS011;62994;52.126;5.596;2022-09-09T02:50:17;3.75;;;3.53;;
17564;SDS011;62994;52.126;5.596;2022-09-09T02:52:52;4.35;;;4.13;;
17564;SDS011;62994;52.126;5.596;2022-09-09T02:55:30;3.88;;;3.63;;
17564;SDS011;62994;52.126;5.596;2022-09-09T02:58:05;3.20;;;3.10;;
17564;SDS011;62994;52.126;5.596;2022-09-09T03:00:36;5.63;;;3.58;;
17564;SDS011;62994;52.126;5.596;2022-09-09T03:03:05;3.75;;;3.50;;
17564;SDS011;62994;52.126;5.596;2022-09-09T03:05:33;4.22;;;3.92;;
17564;SDS011;62994;52.126;5.596;2022-09-09T03:08:00;4.88;;;3.60;;
17564;SDS011;62994;52.126;5.596;2022-09-09T03:10:28;5.03;;;3.70;;
17564;SDS011;62994;52.126;5.596;2022-09-09T03:12:55;4.10;;;3.80;;
17564;SDS011;62994;52.126;5.596;2022-09-09T03:15:22;4.40;;;4.10;;
17564;SDS011;62994;52.126;5.596;2022-09-09T03:17:49;4.28;;;3.97;;
17564;SDS011;62994;52.126;5.596;2022-09-09T03:20:17;6.40;;;3.92;;
17564;SDS011;62994;52.126;5.596;2022-09-09T03:22:44;4.30;;;3.90;;
17564;SDS011;62994;52.126;5.596;2022-09-09T03:25:11;4.00;;;3.65;;
17564;SDS011;62994;52.126;5.596;2022-09-09T03:27:38;4.22;;;3.83;;
17564;SDS011;62994;52.126;5.596;2022-09-09T03:30:05;3.65;;;3.30;;
17564;SDS011;62994;52.126;5.596;2022-09-09T03:32:33;4.45;;;4.15;;
17564;SDS011;62994;52.126;5.596;2022-09-09T03:35:00;4.10;;;3.90;;
17564;SDS011;62994;52.126;5.596;2022-09-09T03:37:28;4.63;;;4.22;;
17564;SDS011;62994;52.126;5.596;2022-09-09T03:39:56;4.38;;;4.07;;
17564;SDS011;62994;52.126;5.596;2022-09-09T03:42:24;8.85;;;4.10;;
17564;SDS011;62994;52.126;5.596;2022-09-09T03:44:52;4.05;;;3.75;;
17564;SDS011;62994;52.126;5.596;2022-09-09T03:47:19;5.72;;;4.30;;
17564;SDS011;62994;52.126;5.596;2022-09-09T03:49:47;4.25;;;4.00;;
17564;SDS011;62994;52.126;5.596;2022-09-09T03:52:14;4.25;;;3.92;;
17564;SDS011;62994;52.126;5.596;2022-09-09T03:54:45;4.93;;;4.60;;
17564;SDS011;62994;52.126;5.596;2022-09-09T03:57:12;4.75;;;4.35;;
17564;SDS011;62994;52.126;5.596;2022-09-09T03:59:41;4.25;;;4.05;;
17564;SDS011;62994;52.126;5.596;2022-09-09T04:02:08;4.38;;;4.05;;
17564;SDS011;62994;52.126;5.596;2022-09-09T04:04:36;4.53;;;4.05;;
17564;SDS011;62994;52.126;5.596;2022-09-09T04:07:03;5.90;;;4.30;;
17564;SDS011;62994;52.126;5.596;2022-09-09T04:09:31;4.55;;;4.30;;
17564;SDS011;62994;52.126;5.596;2022-09-09T04:12:01;4.72;;;4.32;;
17564;SDS011;62994;52.126;5.596;2022-09-09T04:14:28;5.70;;;4.15;;
17564;SDS011;62994;52.126;5.596;2022-09-09T04:16:55;5.03;;;4.63;;
17564;SDS011;62994;52.126;5.596;2022-09-09T04:19:22;8.75;;;4.70;;
17564;SDS011;62994;52.126;5.596;2022-09-09T04:21:49;6.72;;;4.45;;
17564;SDS011;62994;52.126;5.596;2022-09-09T04:24:16;5.65;;;4.35;;
17564;SDS011;62994;52.126;5.596;2022-09-09T04:26:43;4.88;;;4.57;;
17564;SDS011;62994;52.126;5.596;2022-09-09T04:29:13;4.85;;;4.55;;
17564;SDS011;62994;52.126;5.596;2022-09-09T04:31:40;5.32;;;4.93;;
17564;SDS011;62994;52.126;5.596;2022-09-09T04:34:08;5.05;;;4.70;;
17564;SDS011;62994;52.126;5.596;2022-09-09T04:36:35;5.13;;;4.63;;
17564;SDS011;62994;52.126;5.596;2022-09-09T04:39:03;4.65;;;4.35;;
17564;SDS011;62994;52.126;5.596;2022-09-09T04:41:30;4.00;;;3.75;;
17564;SDS011;62994;52.126;5.596;2022-09-09T04:43:57;4.40;;;4.20;;
17564;SDS011;62994;52.126;5.596;2022-09-09T04:46:26;4.78;;;4.35;;
17564;SDS011;62994;52.126;5.596;2022-09-09T04:48:53;4.68;;;4.38;;
17564;SDS011;62994;52.126;5.596;2022-09-09T04:51:20;4.32;;;4.13;;
17564;SDS011;62994;52.126;5.596;2022-09-09T04:53:47;5.43;;;4.10;;
17564;SDS011;62994;52.126;5.596;2022-09-09T04:56:16;7.82;;;4.47;;
17564;SDS011;62994;52.126;5.596;2022-09-09T04:58:44;7.07;;;4.15;;
17564;SDS011;62994;52.126;5.596;2022-09-09T05:01:11;5.20;;;4.03;;
17564;SDS011;62994;52.126;5.596;2022-09-09T05:03:41;5.50;;;4.03;;
17564;SDS011;62994;52.126;5.596;2022-09-09T05:06:10;4.30;;;4.00;;
17564;SDS011;62994;52.126;5.596;2022-09-09T05:08:39;6.00;;;3.72;;
17564;SDS011;62994;52.126;5.596;2022-09-09T05:11:12;5.70;;;3.92;;
17564;SDS011;62994;52.126;5.596;2022-09-09T05:13:41;9.23;;;4.20;;
17564;SDS011;62994;52.126;5.596;2022-09-09T05:19:32;5.45;;;3.88;;
17564;SDS011;62994;52.126;5.596;2022-09-09T05:21:59;6.75;;;4.28;;
17564;SDS011;62994;52.126;5.596;2022-09-09T05:24:26;4.85;;;4.07;;
17564;SDS011;62994;52.126;5.596;2022-09-09T05:26:53;5.43;;;4.13;;
17564;SDS011;62994;52.126;5.596;2022-09-09T05:29:23;6.63;;;3.78;;
17564;SDS011;62994;52.126;5.596;2022-09-09T05:31:49;6.88;;;4.07;;
17564;SDS011;62994;52.126;5.596;2022-09-09T05:34:16;5.72;;;3.88;;
17564;SDS011;62994;52.126;5.596;2022-09-09T05:36:45;9.15;;;4.20;;
17564;SDS011;62994;52.126;5.596;2022-09-09T05:39:12;7.10;;;3.83;;
17564;SDS011;62994;52.126;5.596;2022-09-09T05:41:39;4.10;;;3.70;;
17564;SDS011;62994;52.126;5.596;2022-09-09T05:44:06;4.20;;;3.80;;
17564;SDS011;62994;52.126;5.596;2022-09-09T05:46:33;7.95;;;3.85;;
17564;SDS011;62994;52.126;5.596;2022-09-09T05:49:00;6.38;;;4.07;;
17564;SDS011;62994;52.126;5.596;2022-09-09T05:51:28;3.97;;;3.63;;
17564;SDS011;62994;52.126;5.596;2022-09-09T05:53:57;4.50;;;3.72;;
17564;SDS011;62994;52.126;5.596;2022-09-09T05:56:24;3.42;;;3.22;;
17564;SDS011;62994;52.126;5.596;2022-09-09T05:58:52;5.07;;;3.63;;
17564;SDS011;62994;52.126;5.596;2022-09-09T06:01:21;10.38;;;4.00;;
17564;SDS011;62994;52.126;5.596;2022-09-09T06:03:49;3.90;;;3.65;;
17564;SDS011;62994;52.126;5.596;2022-09-09T06:06:17;4.30;;;3.67;;
17564;SDS011;62994;52.126;5.596;2022-09-09T06:08:46;4.47;;;3.72;;
17564;SDS011;62994;52.126;5.596;2022-09-09T06:11:17;8.90;;;3.47;;
17564;SDS011;62994;52.126;5.596;2022-09-09T06:13:45;5.82;;;3.50;;
17564;SDS011;62994;52.126;5.596;2022-09-09T06:16:14;6.13;;;3.25;;
17564;SDS011;62994;52.126;5.596;2022-09-09T06:18:42;8.68;;;3.50;;
17564;SDS011;62994;52.126;5.596;2022-09-09T06:21:11;7.90;;;3.55;;
17564;SDS011;62994;52.126;5.596;2022-09-09T06:23:42;4.20;;;3.70;;
17564;SDS011;62994;52.126;5.596;2022-09-09T06:26:11;6.00;;;3.83;;
17564;SDS011;62994;52.126;5.596;2022-09-09T06:28:40;6.22;;;3.30;;
17564;SDS011;62994;52.126;5.596;2022-09-09T06:31:08;4.78;;;3.40;;
17564;SDS011;62994;52.126;5.596;2022-09-09T06:33:37;9.02;;;4.10;;
17564;SDS011;62994;52.126;5.596;2022-09-09T06:36:06;3.58;;;3.20;;
17564;SDS011;62994;52.126;5.596;2022-09-09T06:38:36;7.00;;;3.35;;
17564;SDS011;62994;52.126;5.596;2022-09-09T06:41:03;3.85;;;2.95;;
17564;SDS011;62994;52.126;5.596;2022-09-09T06:43:31;7.32;;;3.50;;
17564;SDS011;62994;52.126;5.596;2022-09-09T06:46:00;8.45;;;3.28;;
17564;SDS011;62994;52.126;5.596;2022-09-09T06:48:28;7.05;;;3.13;;
17564;SDS011;62994;52.126;5.596;2022-09-09T06:51:02;8.50;;;2.97;;
17564;SDS011;62994;52.126;5.596;2022-09-09T06:53:30;9.65;;;3.65;;
17564;SDS011;62994;52.126;5.596;2022-09-09T06:55:58;4.38;;;3.10;;
17564;SDS011;62994;52.126;5.596;2022-09-09T06:58:26;6.82;;;3.63;;
17564;SDS011;62994;52.126;5.596;2022-09-09T07:00:53;6.93;;;2.88;;
17564;SDS011;62994;52.126;5.596;2022-09-09T07:03:29;6.18;;;3.38;;
17564;SDS011;62994;52.126;5.596;2022-09-09T07:05:56;3.63;;;3.15;;
17564;SDS011;62994;52.126;5.596;2022-09-09T07:08:24;4.63;;;3.20;;
17564;SDS011;62994;52.126;5.596;2022-09-09T07:10:51;5.78;;;3.10;;
17564;SDS011;62994;52.126;5.596;2022-09-09T07:13:19;5.75;;;2.97;;
17564;SDS011;62994;52.126;5.596;2022-09-09T07:15:50;6.47;;;3.22;;
17564;SDS011;62994;52.126;5.596;2022-09-09T07:18:19;4.32;;;3.00;;
17564;SDS011;62994;52.126;5.596;2022-09-09T07:20:55;4.82;;;2.67;;
17564;SDS011;62994;52.126;5.596;2022-09-09T07:23:23;6.00;;;2.63;;
17564;SDS011;62994;52.126;5.596;2022-09-09T07:25:51;4.53;;;2.90;;
17564;SDS011;62994;52.126;5.596;2022-09-09T07:28:20;4.80;;;2.83;;
17564;SDS011;62994;52.126;5.596;2022-09-09T07:30:52;3.03;;;2.47;;
17564;SDS011;62994;52.126;5.596;2022-09-09T07:33:21;4.85;;;2.30;;
17564;SDS011;62994;52.126;5.596;2022-09-09T07:35:49;5.13;;;2.70;;
17564;SDS011;62994;52.126;5.596;2022-09-09T07:38:28;5.78;;;2.60;;
17564;SDS011;62994;52.126;5.596;2022-09-09T07:41:02;5.55;;;2.58;;
17564;SDS011;62994;52.126;5.596;2022-09-09T07:43:30;3.38;;;2.65;;
17564;SDS011;62994;52.126;5.596;2022-09-09T07:45:58;5.13;;;2.53;;
17564;SDS011;62994;52.126;5.596;2022-09-09T07:48:27;5.30;;;2.40;;
17564;SDS011;62994;52.126;5.596;2022-09-09T07:51:03;5.13;;;2.28;;
17564;SDS011;62994;52.126;5.596;2022-09-09T07:53:32;7.68;;;2.97;;
17564;SDS011;62994;52.126;5.596;2022-09-09T07:56:02;5.95;;;2.28;;
17564;SDS011;62994;52.126;5.596;2022-09-09T07:58:30;6.22;;;1.98;;
17564;SDS011;62994;52.126;5.596;2022-09-09T08:00:57;8.88;;;2.65;;
17564;SDS011;62994;52.126;5.596;2022-09-09T08:03:24;8.13;;;2.20;;
17564;SDS011;62994;52.126;5.596;2022-09-09T08:05:53;6.80;;;3.05;;
17564;SDS011;62994;52.126;5.596;2022-09-09T08:08:27;4.53;;;2.45;;
17564;SDS011;62994;52.126;5.596;2022-09-09T08:11:00;4.00;;;2.20;;
17564;SDS011;62994;52.126;5.596;2022-09-09T08:13:28;4.63;;;2.55;;
17564;SDS011;62994;52.126;5.596;2022-09-09T08:16:03;3.60;;;2.10;;
17564;SDS011;62994;52.126;5.596;2022-09-09T08:18:31;6.93;;;2.20;;
17564;SDS011;62994;52.126;5.596;2022-09-09T08:21:05;4.72;;;2.33;;
17564;SDS011;62994;52.126;5.596;2022-09-09T08:23:37;7.55;;;2.20;;
17564;SDS011;62994;52.126;5.596;2022-09-09T08:26:06;4.25;;;2.05;;
17564;SDS011;62994;52.126;5.596;2022-09-09T08:28:36;2.25;;;1.80;;
17564;SDS011;62994;52.126;5.596;2022-09-09T08:31:07;3.55;;;1.90;;
17564;SDS011;62994;52.126;5.596;2022-09-09T08:33:35;3.47;;;2.22;;
17564;SDS011;62994;52.126;5.596;2022-09-09T08:36:03;6.18;;;2.85;;
17564;SDS011;62994;52.126;5.596;2022-09-09T08:38:34;2.70;;;1.65;;
17564;SDS011;62994;52.126;5.596;2022-09-09T08:44:02;8.43;;;1.92;;
17564;SDS011;62994;52.126;5.596;2022-09-09T08:46:33;2.33;;;1.67;;
17564;SDS011;62994;52.126;5.596;2022-09-09T08:49:13;6.68;;;2.22;;
17564;SDS011;62994;52.126;5.596;2022-09-09T08:51:50;4.05;;;2.10;;
17564;SDS011;62994;52.126;5.596;2022-09-09T08:54:18;6.50;;;1.98;;
17564;SDS011;62994;52.126;5.596;2022-09-09T08:56:45;11.02;;;2.45;;
17564;SDS011;62994;52.126;5.596;2022-09-09T08:59:12;6.20;;;1.88;;
17564;SDS011;62994;52.126;5.596;2022-09-09T09:01:50;4.03;;;1.83;;
17564;SDS011;62994;52.126;5.596;2022-09-09T09:04:29;5.10;;;2.40;;
17564;SDS011;62994;52.126;5.596;2022-09-09T09:07:13;4.82;;;2.17;;
17564;SDS011;62994;52.126;5.596;2022-09-09T09:09:51;4.57;;;1.70;;
17564;SDS011;62994;52.126;5.596;2022-09-09T09:12:26;3.03;;;1.63;;
17564;SDS011;62994;52.126;5.596;2022-09-09T09:14:55;6.50;;;1.80;;
17564;SDS011;62994;52.126;5.596;2022-09-09T09:17:24;4.57;;;2.60;;
17564;SDS011;62994;52.126;5.596;2022-09-09T09:19:56;8.65;;;2.35;;
17564;SDS011;62994;52.126;5.596;2022-09-09T09:22:29;5.00;;;1.58;;
17564;SDS011;62994;52.126;5.596;2022-09-09T09:25:02;3.15;;;1.95;;
17564;SDS011;62994;52.126;5.596;2022-09-09T09:27:39;5.05;;;1.98;;
17564;SDS011;62994;52.126;5.596;2022-09-09T09:30:13;3.65;;;2.15;;
17564;SDS011;62994;52.126;5.596;2022-09-09T09:32:44;5.60;;;2.28;;
17564;SDS011;62994;52.126;5.596;2022-09-09T09:35:18;7.63;;;1.92;;
17564;SDS011;62994;52.126;5.596;2022-09-09T09:37:46;4.55;;;1.92;;
17564;SDS011;62994;52.126;5.596;2022-09-09T09:40:17;4.10;;;1.83;;
17564;SDS011;62994;52.126;5.596;2022-09-09T09:42:49;4.07;;;2.00;;
17564;SDS011;62994;52.126;5.596;2022-09-09T09:45:23;4.93;;;2.15;;
17564;SDS011;62994;52.126;5.596;2022-09-09T09:47:59;3.90;;;1.80;;
17564;SDS011;62994;52.126;5.596;2022-09-09T09:50:28;4.85;;;1.70;;
17564;SDS011;62994;52.126;5.596;2022-09-09T09:52:58;7.85;;;1.83;;
17564;SDS011;62994;52.126;5.596;2022-09-09T09:55:29;10.82;;;2.25;;
17564;SDS011;62994;52.126;5.596;2022-09-09T09:58:02;3.38;;;1.77;;
17564;SDS011;62994;52.126;5.596;2022-09-09T10:00:30;7.00;;;1.80;;
17564;SDS011;62994;52.126;5.596;2022-09-09T10:02:58;2.53;;;1.60;;
17564;SDS011;62994;52.126;5.596;2022-09-09T10:05:26;2.63;;;1.83;;
17564;SDS011;62994;52.126;5.596;2022-09-09T10:08:10;2.63;;;1.50;;
17564;SDS011;62994;52.126;5.596;2022-09-09T10:10:42;4.68;;;1.60;;
17564;SDS011;62994;52.126;5.596;2022-09-09T10:13:24;10.10;;;1.75;;
17564;SDS011;62994;52.126;5.596;2022-09-09T10:15:58;6.82;;;1.75;;
17564;SDS011;62994;52.126;5.596;2022-09-09T10:18:45;5.72;;;2.05;;
17564;SDS011;62994;52.126;5.596;2022-09-09T10:21:25;7.30;;;2.08;;
17564;SDS011;62994;52.126;5.596;2022-09-09T10:24:18;6.20;;;1.90;;
17564;SDS011;62994;52.126;5.596;2022-09-09T10:27:00;5.13;;;1.75;;
17564;SDS011;62994;52.126;5.596;2022-09-09T10:29:40;6.40;;;2.08;;
17564;SDS011;62994;52.126;5.596;2022-09-09T10:32:31;4.50;;;1.75;;
17564;SDS011;62994;52.126;5.596;2022-09-09T10:35:04;9.20;;;2.13;;
17564;SDS011;62994;52.126;5.596;2022-09-09T10:37:41;3.58;;;1.90;;
17564;SDS011;62994;52.126;5.596;2022-09-09T10:40:24;6.63;;;2.25;;
17564;SDS011;62994;52.126;5.596;2022-09-09T10:43:00;3.05;;;1.50;;
17564;SDS011;62994;52.126;5.596;2022-09-09T10:45:36;10.43;;;1.85;;
17564;SDS011;62994;52.126;5.596;2022-09-09T10:48:16;6.22;;;2.10;;
17564;SDS011;62994;52.126;5.596;2022-09-09T10:51:05;5.18;;;1.83;;
17564;SDS011;62994;52.126;5.596;2022-09-09T10:53:48;5.05;;;1.83;;
17564;SDS011;62994;52.126;5.596;2022-09-09T10:56:26;3.08;;;1.88;;
17564;SDS011;62994;52.126;5.596;2022-09-09T10:58:55;3.00;;;1.80;;
17564;SDS011;62994;52.126;5.596;2022-09-09T11:01:27;6.13;;;2.08;;
17564;SDS011;62994;52.126;5.596;2022-09-09T11:04:00;4.30;;;2.38;;
17564;SDS011;62994;52.126;5.596;2022-09-09T11:06:34;4.95;;;2.22;;
17564;SDS011;62994;52.126;5.596;2022-09-09T11:09:04;9.07;;;2.42;;
17564;SDS011;62994;52.126;5.596;2022-09-09T11:11:34;6.05;;;2.60;;
17564;SDS011;62994;52.126;5.596;2022-09-09T11:14:09;7.80;;;3.22;;
17564;SDS011;62994;52.126;5.596;2022-09-09T11:16:42;3.05;;;2.85;;
17564;SDS011;62994;52.126;5.596;2022-09-09T11:19:15;6.35;;;3.30;;
17564;SDS011;62994;52.126;5.596;2022-09-09T11:21:47;5.35;;;2.67;;
17564;SDS011;62994;52.126;5.596;2022-09-09T11:24:18;9.05;;;3.58;;
17564;SDS011;62994;52.126;5.596;2022-09-09T11:26:52;4.93;;;3.80;;
17564;SDS011;62994;52.126;5.596;2022-09-09T11:32:39;4.97;;;3.55;;
17564;SDS011;62994;52.126;5.596;2022-09-09T11:35:33;9.15;;;2.80;;
17564;SDS011;62994;52.126;5.596;2022-09-09T11:38:21;4.28;;;2.60;;
17564;SDS011;62994;52.126;5.596;2022-09-09T11:40:56;8.07;;;2.92;;
17564;SDS011;62994;52.126;5.596;2022-09-09T11:43:29;7.30;;;2.70;;
17564;SDS011;62994;52.126;5.596;2022-09-09T11:45:58;4.93;;;2.47;;
17564;SDS011;62994;52.126;5.596;2022-09-09T11:48:37;5.55;;;2.30;;
17564;SDS011;62994;52.126;5.596;2022-09-09T11:51:08;7.85;;;3.40;;
17564;SDS011;62994;52.126;5.596;2022-09-09T11:53:47;4.35;;;2.53;;
17564;SDS011;62994;52.126;5.596;2022-09-09T11:56:23;4.57;;;2.03;;
17564;SDS011;62994;52.126;5.596;2022-09-09T11:58:57;6.53;;;2.40;;
17564;SDS011;62994;52.126;5.596;2022-09-09T12:01:28;3.67;;;2.30;;
17564;SDS011;62994;52.126;5.596;2022-09-09T12:04:11;5.25;;;2.58;;
17564;SDS011;62994;52.126;5.596;2022-09-09T12:06:55;4.22;;;2.80;;
17564;SDS011;62994;52.126;5.596;2022-09-09T12:09:27;3.65;;;2.25;;
17564;SDS011;62994;52.126;5.596;2022-09-09T12:12:07;2.42;;;1.92;;
17564;SDS011;62994;52.126;5.596;2022-09-09T12:14:57;3.95;;;2.03;;
17564;SDS011;62994;52.126;5.596;2022-09-09T12:17:26;3.55;;;1.80;;
17564;SDS011;62994;52.126;5.596;2022-09-09T12:20:02;3.58;;;2.10;;
17564;SDS011;62994;52.126;5.596;2022-09-09T12:22:37;2.67;;;1.73;;
17564;SDS011;62994;52.126;5.596;2022-09-09T12:25:16;5.00;;;1.95;;
17564;SDS011;62994;52.126;5.596;2022-09-09T12:27:53;2.83;;;1.90;;
17564;SDS011;62994;52.126;5.596;2022-09-09T12:30:31;3.70;;;2.22;;
17564;SDS011;62994;52.126;5.596;2022-09-09T12:33:07;3.80;;;2.08;;
17564;SDS011;62994;52.126;5.596;2022-09-09T12:35:37;3.90;;;2.38;;
17564;SDS011;62994;52.126;5.596;2022-09-09T12:38:05;3.70;;;2.20;;
17564;SDS011;62994;52.126;5.596;2022-09-09T12:40:37;6.57;;;2.15;;
17564;SDS011;62994;52.126;5.596;2022-09-09T12:43:15;4.35;;;2.03;;
17564;SDS011;62994;52.126;5.596;2022-09-09T12:45:46;3.92;;;2.15;;
17564;SDS011;62994;52.126;5.596;2022-09-09T12:48:15;5.88;;;2.55;;
17564;SDS011;62994;52.126;5.596;2022-09-09T12:50:45;4.45;;;2.60;;
17564;SDS011;62994;52.126;5.596;2022-09-09T12:53:15;2.70;;;2.50;;
17564;SDS011;62994;52.126;5.596;2022-09-09T12:55:49;5.65;;;2.30;;
17564;SDS011;62994;52.126;5.596;2022-09-09T12:58:18;4.05;;;2.08;;
17564;SDS011;62994;52.126;5.596;2022-09-09T13:00:50;3.85;;;2.35;;
17564;SDS011;62994;52.126;5.596;2022-09-09T13:03:19;4.47;;;2.40;;
17564;SDS011;62994;52.126;5.596;2022-09-09T13:05:47;4.90;;;2.10;;
17564;SDS011;62994;52.126;5.596;2022-09-09T13:08:14;3.72;;;1.90;;
17564;SDS011;62994;52.126;5.596;2022-09-09T13:10:46;3.05;;;2.20;;
17564;SDS011;62994;52.126;5.596;2022-09-09T13:13:20;4.93;;;2.05;;
17564;SDS011;62994;52.126;5.596;2022-09-09T13:15:52;4.45;;;2.65;;
17564;SDS011;62994;52.126;5.596;2022-09-09T13:18:22;4.47;;;2.22;;
17564;SDS011;62994;52.126;5.596;2022-09-09T13:20:51;3.47;;;1.98;;
17564;SDS011;62994;52.126;5.596;2022-09-09T13:23:19;2.28;;;1.83;;
17564;SDS011;62994;52.126;5.596;2022-09-09T13:25:54;1.67;;;1.45;;
17564;SDS011;62994;52.126;5.596;2022-09-09T13:28:22;2.08;;;1.90;;
17564;SDS011;62994;52.126;5.596;2022-09-09T13:30:58;3.03;;;1.92;;
17564;SDS011;62994;52.126;5.596;2022-09-09T13:33:30;2.90;;;1.95;;
17564;SDS011;62994;52.126;5.596;2022-09-09T13:35:59;4.88;;;1.83;;
17564;SDS011;62994;52.126;5.596;2022-09-09T13:38:30;4.55;;;2.10;;
17564;SDS011;62994;52.126;5.596;2022-09-09T13:41:00;4.63;;;1.80;;
17564;SDS011;62994;52.126;5.596;2022-09-09T13:43:30;3.20;;;1.95;;
17564;SDS011;62994;52.126;5.596;2022-09-09T13:46:02;2.42;;;1.80;;
17564;SDS011;62994;52.126;5.596;2022-09-09T13:48:29;2.88;;;2.05;;
17564;SDS011;62994;52.126;5.596;2022-09-09T13:50:58;4.07;;;2.17;;
17564;SDS011;62994;52.126;5.596;2022-09-09T13:53:28;3.20;;;1.80;;
17564;SDS011;62994;52.126;5.596;2022-09-09T13:55:55;2.10;;;2.00;;
17564;SDS011;62994;52.126;5.596;2022-09-09T13:58:23;2.55;;;1.83;;
17564;SDS011;62994;52.126;5.596;2022-09-09T14:00:51;2.78;;;2.15;;
17564;SDS011;62994;52.126;5.596;2022-09-09T14:03:20;2.45;;;1.70;;
17564;SDS011;62994;52.126;5.596;2022-09-09T14:05:47;2.30;;;1.92;;
17564;SDS011;62994;52.126;5.596;2022-09-09T14:08:24;4.45;;;1.77;;
17564;SDS011;62994;52.126;5.596;2022-09-09T14:10:53;4.30;;;1.55;;
17564;SDS011;62994;52.126;5.596;2022-09-09T14:13:23;2.28;;;1.60;;
17564;SDS011;62994;52.126;5.596;2022-09-09T14:15:50;2.17;;;1.98;;
17564;SDS011;62994;52.126;5.596;2022-09-09T14:18:17;1.88;;;1.50;;
17564;SDS011;62994;52.126;5.596;2022-09-09T14:20:47;3.20;;;1.70;;
17564;SDS011;62994;52.126;5.596;2022-09-09T14:23:15;4.20;;;1.40;;
17564;SDS011;62994;52.126;5.596;2022-09-09T14:25:44;4.38;;;1.77;;
17564;SDS011;62994;52.126;5.596;2022-09-09T14:28:12;2.47;;;1.80;;
17564;SDS011;62994;52.126;5.596;2022-09-09T14:30:39;1.88;;;1.60;;
17564;SDS011;62994;52.126;5.596;2022-09-09T14:33:08;1.40;;;1.30;;
17564;SDS011;62994;52.126;5.596;2022-09-09T14:35:39;2.95;;;1.27;;
17564;SDS011;62994;52.126;5.596;2022-09-09T14:38:09;3.00;;;1.25;;
17564;SDS011;62994;52.126;5.596;2022-09-09T14:40:36;1.58;;;1.15;;
17564;SDS011;62994;52.126;5.596;2022-09-09T14:43:04;1.30;;;1.20;;
17564;SDS011;62994;52.126;5.596;2022-09-09T14:45:31;1.70;;;1.60;;
17564;SDS011;62994;52.126;5.596;2022-09-09T14:47:58;4.70;;;1.63;;
17564;SDS011;62994;52.126;5.596;2022-09-09T14:50:25;1.88;;;1.40;;
17564;SDS011;62994;52.126;5.596;2022-09-09T14:52:54;2.25;;;1.48;;
17564;SDS011;62994;52.126;5.596;2022-09-09T14:55:21;1.80;;;1.40;;
17564;SDS011;62994;52.126;5.596;2022-09-09T14:57:47;1.88;;;1.42;;
17564;SDS011;62994;52.126;5.596;2022-09-09T15:00:15;1.88;;;1.40;;
17564;SDS011;62994;52.126;5.596;2022-09-09T15:02:42;2.53;;;1.30;;
17564;SDS011;62994;52.126;5.596;2022-09-09T15:05:09;2.22;;;1.60;;
17564;SDS011;62994;52.126;5.596;2022-09-09T15:07:36;2.78;;;1.70;;
17564;SDS011;62994;52.126;5.596;2022-09-09T15:10:05;4.03;;;1.98;;
17564;SDS011;62994;52.126;5.596;2022-09-09T15:12:32;1.80;;;1.70;;
17564;SDS011;62994;52.126;5.596;2022-09-09T15:15:00;2.30;;;1.70;;
17564;SDS011;62994;52.126;5.596;2022-09-09T15:17:28;3.00;;;1.70;;
17564;SDS011;62994;52.126;5.596;2022-09-09T15:19:55;4.35;;;1.70;;
17564;SDS011;62994;52.126;5.596;2022-09-09T15:22:22;2.00;;;1.70;;
17564;SDS011;62994;52.126;5.596;2022-09-09T15:24:50;1.90;;;1.65;;